createdAt,value
2018-05-27T00:00:46.840Z,90.30
2018-05-27T00:03:16.644Z,90.80
2018-05-27T00:05:46.260Z,90.90
2018-05-27T00:08:16.156Z,91.00
2018-05-27T00:10:45.415Z,91.00
2018-05-27T00:13:13.033Z,90.80
2018-05-27T00:15:41.889Z,90.30
2018-05-27T00:18:12.170Z,90.30
2018-05-27T00:20:41.085Z,90.30
2018-05-27T00:23:09.716Z,90.50
2018-05-27T00:25:39.768Z,89.50
2018-05-27T00:28:12.533Z,89.30
2018-05-27T00:30:42.806Z,89.60
2018-05-27T00:33:12.777Z,89.60
2018-05-27T00:35:45.946Z,90.10
2018-05-27T00:38:15.266Z,91.30
2018-05-27T00:40:47.662Z,91.30
2018-05-27T00:43:20.218Z,91.60
2018-05-27T00:45:49.298Z,91.70
2018-05-27T00:48:19.604Z,92.00
2018-05-27T00:50:57.545Z,91.40
2018-05-27T00:53:44.434Z,91.40
2018-05-27T00:56:17.956Z,91.70
2018-05-27T00:59:07.894Z,91.90
2018-05-27T01:01:46.399Z,91.60
2018-05-27T01:04:19.888Z,91.00
2018-05-27T01:06:52.406Z,90.30
2018-05-27T01:09:22.409Z,90.00
2018-05-27T01:11:55.295Z,90.00
2018-05-27T01:14:24.349Z,89.70
2018-05-27T01:16:51.929Z,89.70
2018-05-27T01:19:21.560Z,89.80
2018-05-27T01:21:50.107Z,90.10
2018-05-27T01:24:17.912Z,90.50
2018-05-27T01:26:45.857Z,91.40
2018-05-27T01:29:13.550Z,91.40
2018-05-27T01:31:43.556Z,91.80
2018-05-27T01:34:11.669Z,91.80
2018-05-27T01:36:39.888Z,92.00
2018-05-27T01:39:07.433Z,92.00
2018-05-27T01:41:35.092Z,91.80
2018-05-27T01:44:03.953Z,91.60
2018-05-27T01:46:33.657Z,91.30
2018-05-27T01:49:01.865Z,90.60
2018-05-27T01:51:31.020Z,90.60
2018-05-27T01:53:59.944Z,89.90
2018-05-27T01:56:28.287Z,89.80
2018-05-27T01:58:56.778Z,89.60
2018-05-27T02:01:25.186Z,89.20
2018-05-27T02:03:53.412Z,89.00
2018-05-27T02:06:21.444Z,89.00
2018-05-27T02:08:50.491Z,89.00
2018-05-27T02:11:19.925Z,89.30
2018-05-27T02:13:49.192Z,89.50
2018-05-27T02:16:17.173Z,88.90
2018-05-27T02:18:45.789Z,88.10
2018-05-27T02:21:14.240Z,88.10
2018-05-27T02:23:44.021Z,87.00
2018-05-27T02:26:12.035Z,87.00
2018-05-27T02:28:40.361Z,86.60
2018-05-27T02:31:09.178Z,86.20
2018-05-27T02:33:38.412Z,85.90
2018-05-27T02:36:07.450Z,85.70
2018-05-27T02:38:35.264Z,85.50
2018-05-27T02:41:02.856Z,85.30
2018-05-27T02:43:30.457Z,85.30
2018-05-27T02:45:58.258Z,85.10
2018-05-27T02:48:26.500Z,85.10
2018-05-27T02:50:55.407Z,84.60
2018-05-27T02:53:23.741Z,84.60
2018-05-27T02:55:53.176Z,85.20
2018-05-27T02:58:21.201Z,87.50
2018-05-27T03:00:50.473Z,87.50
2018-05-27T03:03:19.869Z,86.50
2018-05-27T03:05:47.428Z,86.20
2018-05-27T03:08:17.104Z,86.20
2018-05-27T03:10:45.927Z,86.20
2018-05-27T03:13:14.612Z,86.20
2018-05-27T03:15:42.871Z,86.00
2018-05-27T03:18:11.353Z,85.80
2018-05-27T03:20:40.057Z,85.50
2018-05-27T03:23:07.820Z,85.10
2018-05-27T03:25:36.813Z,85.00
2018-05-27T03:28:04.409Z,84.90
2018-05-27T03:30:32.011Z,84.80
2018-05-27T03:33:00.876Z,84.70
2018-05-27T03:35:28.436Z,84.70
2018-05-27T03:37:56.003Z,84.90
2018-05-27T03:40:24.807Z,84.90
2018-05-27T03:42:52.759Z,84.70
2018-05-27T03:45:21.868Z,84.90
2018-05-27T03:47:50.451Z,85.10
2018-05-27T03:50:18.439Z,85.60
2018-05-27T03:52:46.070Z,85.60
2018-05-27T03:55:15.415Z,86.40
2018-05-27T03:57:43.005Z,86.40
2018-05-27T04:00:10.608Z,86.50
2018-05-27T04:02:38.568Z,86.60
2018-05-27T04:05:18.384Z,86.50
2018-05-27T04:07:57.807Z,86.50
2018-05-27T04:10:28.296Z,86.10
2018-05-27T04:12:59.131Z,85.70
2018-05-27T04:15:27.659Z,84.20
2018-05-27T04:17:57.356Z,84.20
2018-05-27T04:20:30.265Z,83.60
2018-05-27T04:22:59.667Z,83.40
2018-05-27T04:25:29.107Z,82.70
2018-05-27T04:27:57.827Z,82.80
2018-05-27T04:30:27.907Z,82.90
2018-05-27T04:32:58.037Z,82.80
2018-05-27T04:35:27.327Z,83.80
2018-05-27T04:37:56.023Z,84.10
2018-05-27T04:40:24.270Z,84.10
2018-05-27T04:42:55.538Z,84.70
2018-05-27T04:45:24.140Z,84.70
2018-05-27T04:47:56.164Z,84.70
2018-05-27T04:50:27.437Z,84.00
2018-05-27T04:52:55.615Z,84.10
2018-05-27T04:55:25.500Z,83.80
2018-05-27T04:57:55.217Z,83.30
2018-05-27T05:00:25.031Z,82.60
2018-05-27T05:02:53.451Z,82.60
2018-05-27T05:05:21.026Z,82.00
2018-05-27T05:07:49.507Z,82.00
2018-05-27T05:10:17.295Z,82.60
2018-05-27T05:12:44.936Z,81.60
2018-05-27T05:15:12.633Z,82.10
2018-05-27T05:17:40.420Z,82.50
2018-05-27T05:20:08.133Z,82.20
2018-05-27T05:22:35.801Z,82.50
2018-05-27T05:25:03.656Z,82.40
2018-05-27T05:27:32.680Z,83.10
2018-05-27T05:30:01.308Z,83.80
2018-05-27T05:32:30.745Z,83.90
2018-05-27T05:34:58.527Z,84.20
2018-05-27T05:37:29.668Z,84.60
2018-05-27T05:40:01.500Z,84.40
2018-05-27T05:42:30.888Z,84.40
2018-05-27T05:44:58.944Z,84.30
2018-05-27T05:47:28.148Z,84.10
2018-05-27T05:49:55.769Z,83.40
2018-05-27T05:52:23.293Z,83.40
2018-05-27T05:54:53.041Z,82.70
2018-05-27T05:57:21.376Z,82.80
2018-05-27T05:59:51.666Z,82.70
2018-05-27T06:02:21.257Z,82.30
2018-05-27T06:04:49.277Z,82.30
2018-05-27T06:07:17.782Z,82.30
2018-05-27T06:09:47.071Z,81.60
2018-05-27T06:12:16.462Z,81.90
2018-05-27T06:14:45.175Z,82.00
2018-05-27T06:17:13.382Z,82.60
2018-05-27T06:19:41.724Z,83.60
2018-05-27T06:22:09.598Z,83.60
2018-05-27T06:24:40.375Z,84.40
2018-05-27T06:27:09.272Z,83.50
2018-05-27T06:29:37.108Z,83.50
2018-05-27T06:32:05.131Z,81.20
2018-05-27T06:34:37.703Z,81.20
2018-05-27T06:37:06.297Z,80.20
2018-05-27T06:39:34.729Z,79.70
2018-05-27T06:42:03.202Z,79.30
2018-05-27T06:44:31.762Z,79.80
2018-05-27T06:47:00.664Z,80.50
2018-05-27T06:49:28.701Z,80.50
2018-05-27T06:51:57.107Z,80.50
2018-05-27T06:54:25.652Z,80.90
2018-05-27T06:56:55.048Z,81.30
2018-05-27T06:59:25.892Z,81.90
2018-05-27T07:01:54.105Z,81.00
2018-05-27T07:04:22.543Z,79.80
2018-05-27T07:06:51.906Z,78.90
2018-05-27T07:09:20.093Z,78.90
2018-05-27T07:11:49.111Z,77.80
2018-05-27T07:14:22.354Z,77.60
2018-05-27T07:16:51.121Z,76.60
2018-05-27T07:19:19.890Z,77.00
2018-05-27T07:21:48.458Z,77.00
2018-05-27T07:24:17.730Z,75.50
2018-05-27T07:26:46.233Z,76.30
2018-05-27T07:29:14.888Z,78.80
2018-05-27T07:31:43.450Z,75.70
2018-05-27T07:34:12.401Z,74.40
2018-05-27T07:36:40.942Z,73.80
2018-05-27T07:39:09.544Z,73.00
2018-05-27T07:41:38.256Z,74.20
2018-05-27T07:44:06.368Z,74.20
2018-05-27T07:46:34.737Z,72.50
2018-05-27T07:49:03.160Z,73.50
2018-05-27T07:51:31.594Z,72.20
2018-05-27T07:54:00.136Z,71.60
2018-05-27T07:56:28.473Z,71.20
2018-05-27T07:58:57.286Z,69.90
2018-05-27T08:01:25.619Z,69.90
2018-05-27T08:03:54.819Z,68.50
2018-05-27T08:06:23.954Z,68.20
2018-05-27T08:08:52.509Z,68.20
2018-05-27T08:11:23.913Z,66.40
2018-05-27T08:13:52.782Z,66.00
2018-05-27T08:16:24.628Z,66.30
2018-05-27T10:23:09.367Z,52.10
2018-05-27T10:25:38.252Z,49.50
2018-05-27T10:28:11.779Z,49.10
2018-05-27T10:40:10.720Z,48.40
2018-05-27T10:42:42.144Z,48.50
2018-05-27T10:45:15.778Z,48.40
2018-05-27T10:53:39.481Z,46.00
2018-05-27T10:56:09.007Z,46.70
2018-05-27T11:12:51.938Z,44.00
2018-05-27T11:15:21.424Z,46.10
2018-05-27T11:17:51.414Z,45.10
2018-05-27T11:23:02.761Z,43.60
2018-05-27T11:25:30.470Z,44.30
2018-05-27T11:27:58.535Z,45.20
2018-05-27T11:30:26.213Z,44.40
2018-05-27T11:32:54.413Z,44.70
2018-05-27T11:35:24.103Z,43.90
2018-05-27T11:38:01.433Z,44.00
2018-05-27T11:40:29.578Z,43.10
2018-05-27T11:42:59.675Z,43.00
2018-05-27T11:45:29.475Z,43.00
2018-05-27T11:47:58.470Z,43.00
2018-05-27T11:53:14.840Z,46.90
2018-05-27T11:55:48.071Z,45.50
2018-05-27T11:58:22.738Z,45.90
2018-05-27T12:00:56.093Z,42.30
2018-05-27T12:03:25.124Z,42.30
2018-05-27T12:05:57.466Z,40.60
2018-05-27T12:08:31.881Z,35.10
2018-05-27T12:11:01.557Z,35.10
2018-05-27T12:13:30.588Z,32.20
2018-05-27T12:16:09.643Z,33.60
2018-05-27T12:18:39.809Z,33.60
2018-05-27T12:24:10.057Z,36.60
2018-05-27T12:26:40.388Z,39.80
2018-05-27T14:17:23.162Z,34.50
2018-05-27T14:20:08.173Z,34.40
2018-05-27T14:22:48.921Z,34.40
2018-05-27T14:25:20.494Z,35.80
2018-05-27T14:27:48.106Z,36.80
2018-05-27T14:30:28.948Z,35.60
2018-05-27T14:33:00.737Z,39.00
2018-05-27T14:35:32.489Z,39.00
2018-05-27T14:38:05.814Z,41.20
2018-05-27T14:40:33.777Z,42.60
2018-05-27T14:43:02.769Z,43.50
2018-05-27T14:45:30.443Z,43.50
2018-05-27T14:47:58.433Z,44.20
2018-05-27T14:50:26.001Z,44.20
2018-05-27T14:52:53.545Z,45.30
2018-05-27T14:55:21.716Z,45.80
2018-05-27T14:57:51.050Z,47.20
2018-05-27T15:00:18.669Z,48.50
2018-05-27T15:02:46.483Z,48.60
2018-05-27T15:05:15.638Z,48.50
2018-05-27T15:07:44.009Z,47.80
2018-05-27T15:10:11.586Z,47.50
2018-05-27T15:12:39.921Z,47.40
2018-05-27T15:15:07.469Z,49.60
2018-05-27T15:17:35.050Z,48.90
2018-05-27T15:20:03.056Z,49.70
2018-05-27T15:22:30.648Z,49.70
2018-05-27T15:24:59.008Z,48.70
2018-05-27T15:27:27.945Z,49.00
2018-05-27T15:29:56.091Z,49.30
2018-05-27T15:32:23.887Z,49.30
2018-05-27T15:34:52.134Z,50.40
2018-05-27T15:37:20.415Z,50.40
2018-05-27T15:39:47.961Z,50.80
2018-05-27T15:42:15.782Z,51.30
2018-05-27T15:44:43.327Z,51.40
2018-05-27T15:47:11.324Z,51.90
2018-05-27T15:49:38.854Z,52.50
2018-05-27T15:52:07.127Z,53.40
2018-05-27T15:54:35.401Z,54.70
2018-05-27T15:57:05.085Z,55.50
2018-05-27T15:59:33.284Z,55.50
2018-05-27T16:02:02.240Z,57.20
2018-05-27T16:04:29.799Z,57.20
2018-05-27T16:06:57.382Z,57.40
2018-05-27T16:09:24.927Z,58.30
2018-05-27T16:11:53.079Z,59.10
2018-05-27T16:14:20.616Z,59.00
2018-05-27T16:16:49.075Z,58.70
2018-05-27T16:19:16.695Z,59.20
2018-05-27T16:21:44.921Z,58.90
2018-05-27T16:24:15.735Z,59.40
2018-05-27T16:26:43.271Z,58.20
2018-05-27T16:29:10.828Z,56.00
2018-05-27T16:31:38.650Z,57.60
2018-05-27T16:34:07.144Z,56.50
2018-05-27T16:36:36.699Z,54.70
2018-05-27T16:39:10.311Z,55.60
2018-05-27T16:41:43.748Z,55.70
2018-05-27T16:44:11.575Z,55.90
2018-05-27T16:46:40.422Z,56.60
2018-05-27T16:49:08.310Z,56.60
2018-05-27T16:51:35.882Z,56.50
2018-05-27T16:54:05.133Z,55.60
2018-05-27T16:56:34.205Z,55.40
2018-05-27T16:59:03.197Z,57.40
2018-05-27T17:01:32.859Z,56.70
2018-05-27T17:04:02.718Z,56.70
2018-05-27T17:06:31.441Z,57.70
2018-05-27T17:09:00.579Z,57.70
2018-05-27T17:11:30.382Z,58.60
2018-05-27T17:14:00.990Z,58.60
2018-05-27T17:16:31.693Z,58.60
2018-05-27T17:19:00.193Z,59.70
2018-05-27T17:21:29.605Z,60.10
2018-05-27T17:23:57.193Z,60.70
2018-05-27T17:26:25.728Z,61.40
2018-05-27T17:28:53.465Z,62.50
2018-05-27T17:31:22.334Z,63.70
2018-05-27T17:33:52.418Z,63.80
2018-05-27T17:36:23.460Z,64.00
2018-05-27T17:38:52.808Z,63.20
2018-05-27T17:41:21.291Z,62.70
2018-05-27T17:43:49.288Z,62.40
2018-05-27T17:46:16.867Z,62.40
2018-05-27T17:48:44.428Z,63.50
2018-05-27T17:51:12.034Z,64.60
2018-05-27T17:53:40.161Z,66.00
2018-05-27T17:56:08.144Z,66.00
2018-05-27T17:58:36.695Z,66.60
2018-05-27T18:01:04.313Z,67.00
2018-05-27T18:03:31.876Z,67.00
2018-05-27T18:05:59.908Z,66.60
2018-05-27T18:08:28.824Z,66.60
2018-05-27T18:10:56.675Z,65.10
2018-05-27T18:13:25.079Z,65.20
2018-05-27T18:15:53.338Z,65.30
2018-05-27T18:18:21.145Z,66.80
2018-05-27T18:20:49.326Z,67.30
2018-05-27T18:23:16.905Z,67.30
2018-05-27T18:25:44.478Z,67.90
2018-05-27T18:28:12.324Z,68.80
2018-05-27T18:30:40.712Z,67.90
2018-05-27T18:33:08.305Z,67.80
2018-05-27T18:35:37.760Z,67.80
2018-05-27T18:38:07.577Z,68.10
2018-05-27T18:40:38.090Z,66.10
2018-05-27T18:43:07.221Z,66.20
2018-05-27T18:45:35.023Z,66.20
2018-05-27T18:48:04.181Z,66.60
2018-05-27T18:50:32.199Z,67.30
2018-05-27T18:52:59.753Z,68.30
2018-05-27T18:55:29.241Z,69.00
2018-05-27T18:58:00.033Z,69.00
2018-05-27T19:00:29.170Z,70.30
2018-05-27T19:02:57.576Z,71.90
2018-05-27T19:05:27.779Z,74.30
2018-05-27T19:07:57.515Z,74.30
2018-05-27T19:10:26.299Z,74.90
2018-05-27T19:12:58.830Z,74.30
2018-05-27T19:15:27.436Z,74.20
2018-05-27T19:17:55.694Z,72.40
2018-05-27T19:20:24.856Z,73.30
2018-05-27T19:22:52.460Z,73.70
2018-05-27T19:25:20.011Z,73.80
2018-05-27T19:27:50.601Z,74.30
2018-05-27T19:30:18.530Z,74.50
2018-05-27T19:32:46.303Z,73.00
2018-05-27T19:35:13.889Z,74.10
2018-05-27T19:37:41.855Z,74.10
2018-05-27T19:40:09.816Z,73.90
2018-05-27T19:42:37.806Z,74.10
2018-05-27T19:45:05.393Z,74.10
2018-05-27T19:47:32.988Z,73.90
2018-05-27T19:50:00.552Z,73.30
2018-05-27T19:52:28.093Z,73.10
2018-05-27T19:54:55.665Z,73.90
2018-05-27T19:57:23.225Z,74.10
2018-05-27T19:59:50.812Z,75.20
2018-05-27T20:02:18.348Z,75.10
2018-05-27T20:04:45.912Z,75.60
2018-05-27T20:07:13.504Z,76.90
2018-05-27T20:09:41.464Z,78.30
2018-05-27T20:12:09.420Z,78.60
2018-05-27T20:14:37.492Z,78.20
2018-05-27T20:17:05.721Z,78.40
2018-05-27T20:19:33.280Z,78.40
2018-05-27T20:22:01.204Z,78.80
2018-05-27T20:24:29.141Z,78.00
2018-05-27T20:26:56.737Z,78.00
2018-05-27T20:29:25.314Z,77.20
2018-05-27T20:31:53.309Z,76.10
2018-05-27T20:34:20.878Z,71.40
2018-05-27T20:36:48.483Z,71.70
2018-05-27T20:39:16.114Z,71.60
2018-05-27T20:41:43.651Z,72.10
2018-05-27T20:44:11.275Z,72.00
2018-05-27T20:46:40.120Z,72.30
2018-05-27T20:49:07.765Z,72.30
2018-05-27T20:51:35.355Z,72.70
2018-05-27T20:54:02.958Z,72.20
2018-05-27T20:56:31.109Z,72.00
2018-05-27T20:58:58.735Z,72.00
2018-05-27T21:01:26.311Z,71.70
2018-05-27T21:03:53.882Z,72.00
2018-05-27T21:06:21.469Z,72.50
2018-05-27T21:08:49.678Z,73.00
2018-05-27T21:11:18.077Z,73.00
2018-05-27T21:13:45.661Z,73.20
2018-05-27T21:16:13.612Z,71.50
2018-05-27T21:18:42.947Z,70.90
2018-05-27T21:21:10.559Z,70.50
2018-05-27T21:23:38.371Z,71.70
2018-05-27T21:26:06.364Z,73.90
2018-05-27T21:28:33.928Z,73.80
2018-05-27T21:31:01.492Z,74.00
2018-05-27T21:33:29.045Z,74.60
2018-05-27T21:35:56.645Z,74.90
2018-05-27T21:38:24.224Z,75.20
2018-05-27T21:40:53.032Z,75.60
2018-05-27T21:43:21.920Z,75.40
2018-05-27T21:45:51.008Z,75.40
2018-05-27T21:48:20.544Z,75.40
2018-05-27T21:50:48.351Z,75.60
2018-05-27T21:53:16.967Z,75.50
2018-05-27T21:55:44.498Z,75.30
2018-05-27T21:58:12.073Z,75.00
2018-05-27T22:00:41.226Z,75.40
2018-05-27T22:03:08.821Z,75.70
2018-05-27T22:05:36.633Z,76.10
2018-05-27T22:08:04.210Z,75.60
2018-05-27T22:10:31.995Z,76.40
2018-05-27T22:12:59.617Z,76.70
2018-05-27T22:15:27.564Z,76.20
2018-05-27T22:26:51.109Z,76.40
2018-05-27T22:29:21.080Z,76.00
2018-05-27T22:40:37.199Z,78.10
2018-05-27T22:43:06.646Z,79.30
2018-05-27T22:51:36.219Z,81.40
2018-05-27T22:54:14.548Z,82.80
2018-05-27T23:00:26.705Z,83.40
2018-05-27T23:03:14.047Z,84.40
2018-05-27T23:56:15.733Z,85.10
